Terminal Aerodrome Forecast
Issued by NWS

Home | Current Version | Previous Version | Graphics & Text | Print | Product List | Glossary On
Versions: 1 2 3 4 5 6 7 8 9 10 11 12 13 14 15 16 17 18 19 20 21 22 23 24 25 26 27 28 29 30 31 32
000
FTUS43 KABR 061248 AAA
TAFATY
TAF AMD
KATY 061248Z 0613/0712 36012KT 1SM BR OVC090
     FM061800 35016G25KT 2SM HZ OVC035
     FM070100 35005KT 2SM HZ SKC=

USA.gov is the U.S. government's official web portal to all federal, state and local government web resources and services.